createdAt,value
2023-03-18T00:01:07.537Z,0.45
2023-03-18T00:03:38.714Z,0.47
2023-03-18T00:06:19.300Z,0.32
2023-03-18T00:08:48.385Z,0.60
2023-03-18T00:11:19.156Z,0.32
2023-03-18T00:13:46.740Z,0.55
2023-03-18T00:16:20.039Z,0.30
2023-03-18T00:18:48.376Z,0.30
2023-03-18T00:21:17.579Z,0.50
2023-03-18T00:23:45.115Z,0.60
2023-03-18T00:26:14.537Z,0.30
2023-03-18T00:28:41.782Z,0.40
2023-03-18T00:31:13.587Z,0.50
2023-03-18T00:33:45.590Z,0.40
2023-03-18T00:36:14.429Z,0.40
2023-03-18T00:38:51.207Z,0.38
2023-03-18T00:41:18.425Z,0.40
2023-03-18T00:43:54.936Z,0.40
2023-03-18T00:46:35.609Z,0.40
2023-03-18T00:49:06.457Z,0.50
2023-03-18T00:51:37.591Z,0.50
2023-03-18T00:54:18.036Z,0.45
2023-03-18T00:56:46.700Z,0.60
2023-03-18T00:59:14.234Z,0.40
2023-03-18T01:01:41.511Z,0.28
2023-03-18T01:04:08.960Z,0.30
2023-03-18T01:06:38.797Z,0.40
2023-03-18T01:09:12.289Z,0.30
2023-03-18T01:11:39.687Z,0.40
2023-03-18T01:14:06.898Z,0.50
2023-03-18T01:16:35.043Z,0.40
2023-03-18T01:19:03.007Z,0.40
2023-03-18T01:21:30.037Z,0.40
2023-03-18T01:23:58.082Z,0.30
2023-03-18T01:26:26.324Z,0.40
2023-03-18T01:28:53.518Z,0.30
2023-03-18T01:31:25.871Z,0.30
2023-03-18T01:33:53.110Z,0.38
2023-03-18T01:36:23.353Z,0.40
2023-03-18T01:38:50.821Z,0.30
2023-03-18T01:41:18.773Z,0.30
2023-03-18T01:43:46.051Z,0.40
2023-03-18T01:46:45.024Z,0.30
2023-03-18T01:49:43.038Z,0.32
2023-03-18T01:52:27.287Z,0.30
2023-03-18T01:55:08.590Z,0.20
2023-03-18T01:57:38.054Z,0.30
2023-03-18T02:00:13.426Z,0.50
2023-03-18T02:02:43.609Z,0.40
2023-03-18T02:05:17.568Z,0.38
2023-03-18T02:07:46.250Z,0.38
2023-03-18T02:10:41.391Z,0.40
2023-03-18T02:13:15.048Z,0.30
2023-03-18T02:16:11.376Z,0.38
2023-03-18T02:18:48.414Z,0.30
2023-03-18T02:21:42.227Z,0.40
2023-03-18T02:24:44.723Z,0.40
2023-03-18T02:27:28.320Z,0.35
2023-03-18T02:30:04.455Z,0.50
2023-03-18T02:32:34.172Z,0.30
2023-03-18T02:35:08.760Z,0.30
2023-03-18T02:37:36.212Z,0.32
2023-03-18T02:40:16.209Z,0.40
2023-03-18T02:42:44.485Z,0.40
2023-03-18T02:45:40.726Z,0.38
2023-03-18T02:48:14.394Z,0.30
2023-03-18T02:50:42.464Z,0.40
2023-03-18T02:53:13.566Z,0.35
2023-03-18T02:55:41.512Z,0.22
2023-03-18T02:58:09.688Z,0.40
2023-03-18T03:00:37.158Z,0.25
2023-03-18T03:03:05.886Z,0.30
2023-03-18T03:05:35.144Z,0.30
2023-03-18T03:08:02.822Z,0.32
2023-03-18T03:10:30.826Z,0.28
2023-03-18T03:12:58.627Z,0.40
2023-03-18T03:15:26.617Z,0.40
2023-03-18T03:17:54.677Z,0.50
2023-03-18T03:20:22.259Z,0.32
2023-03-18T03:22:49.463Z,0.30
2023-03-18T03:25:17.038Z,0.43
2023-03-18T03:27:44.181Z,0.30
2023-03-18T03:30:14.122Z,0.40
2023-03-18T03:32:41.625Z,0.45
2023-03-18T03:35:11.972Z,0.40
2023-03-18T03:37:39.098Z,0.40
2023-03-18T03:40:08.310Z,0.30
2023-03-18T03:42:35.487Z,0.32
2023-03-18T03:45:05.877Z,0.38
2023-03-18T03:47:33.452Z,0.40
2023-03-18T03:50:01.186Z,0.38
2023-03-18T03:52:28.713Z,0.40
2023-03-18T03:54:57.197Z,0.40
2023-03-18T03:57:24.897Z,0.22
2023-03-18T03:59:52.468Z,0.35
2023-03-18T04:02:20.220Z,0.50
2023-03-18T04:04:47.686Z,0.40
2023-03-18T04:07:15.498Z,0.30
2023-03-18T04:09:46.849Z,0.28
2023-03-18T04:12:14.885Z,0.40
2023-03-18T04:14:41.778Z,0.40
2023-03-18T04:17:11.578Z,0.38
2023-03-18T04:19:39.486Z,0.30
2023-03-18T04:22:06.924Z,0.50
2023-03-18T04:24:34.084Z,0.40
2023-03-18T04:27:01.216Z,0.32
2023-03-18T04:29:28.451Z,0.40
2023-03-18T04:31:56.790Z,0.40
2023-03-18T04:34:24.149Z,0.45
2023-03-18T04:36:51.454Z,0.40
2023-03-18T04:39:18.625Z,0.30
2023-03-18T04:41:46.937Z,0.30
2023-03-18T04:44:14.671Z,0.40
2023-03-18T04:46:41.895Z,0.30
2023-03-18T04:49:08.906Z,0.40
2023-03-18T04:51:36.700Z,0.50
2023-03-18T04:54:04.238Z,0.40
2023-03-18T04:56:31.477Z,0.30
2023-03-18T04:58:58.491Z,0.30
2023-03-18T05:01:26.042Z,0.30
2023-03-18T05:03:53.553Z,0.30
2023-03-18T05:06:27.894Z,0.30
2023-03-18T05:08:55.139Z,0.30
2023-03-18T05:11:22.326Z,0.40
2023-03-18T05:13:50.204Z,0.40
2023-03-18T05:16:17.943Z,0.40
2023-03-18T05:18:45.443Z,0.30
2023-03-18T05:21:13.137Z,0.40
2023-03-18T05:23:40.355Z,0.30
2023-03-18T05:26:07.691Z,0.30
2023-03-18T05:28:34.714Z,0.30
2023-03-18T05:31:02.478Z,0.40
2023-03-18T05:33:29.812Z,0.30
2023-03-18T05:35:57.489Z,0.30
2023-03-18T05:38:25.658Z,0.30
2023-03-18T05:40:53.845Z,0.30
2023-03-18T05:43:22.242Z,0.38
2023-03-18T05:45:50.742Z,0.40
2023-03-18T05:48:17.721Z,0.38
2023-03-18T05:50:45.415Z,0.50
2023-03-18T05:53:13.301Z,0.30
2023-03-18T05:55:40.643Z,0.40
2023-03-18T05:58:08.600Z,0.40
2023-03-18T06:00:39.449Z,0.30
2023-03-18T06:03:06.956Z,0.30
2023-03-18T06:05:35.341Z,0.20
2023-03-18T06:08:03.065Z,0.40
2023-03-18T06:10:31.190Z,0.30
2023-03-18T06:12:58.228Z,0.30
2023-03-18T06:15:25.952Z,0.40
2023-03-18T06:17:53.262Z,0.40
2023-03-18T06:20:20.954Z,0.30
2023-03-18T06:22:51.843Z,0.38
2023-03-18T06:25:22.276Z,0.20
2023-03-18T06:27:50.624Z,0.35
2023-03-18T06:30:22.129Z,0.30
2023-03-18T06:32:49.824Z,0.32
2023-03-18T06:35:17.233Z,0.40
2023-03-18T06:37:44.396Z,0.30
2023-03-18T06:40:12.724Z,0.30
2023-03-18T06:42:42.628Z,0.32
2023-03-18T06:45:10.876Z,0.40
2023-03-18T06:47:38.716Z,0.40
2023-03-18T06:50:06.247Z,0.30
2023-03-18T06:52:33.856Z,0.40
2023-03-18T06:55:00.890Z,0.30
2023-03-18T06:57:29.187Z,0.28
2023-03-18T06:59:57.350Z,0.30
2023-03-18T07:02:25.156Z,0.30
2023-03-18T07:04:52.677Z,0.30
2023-03-18T07:07:20.276Z,0.30
2023-03-18T07:09:47.415Z,0.20
2023-03-18T07:12:14.715Z,0.35
2023-03-18T07:14:41.943Z,0.30
2023-03-18T07:17:11.037Z,0.40
2023-03-18T07:19:38.414Z,0.38
2023-03-18T07:22:05.613Z,0.30
2023-03-18T07:24:32.950Z,0.22
2023-03-18T07:26:59.933Z,0.30
2023-03-18T07:29:27.815Z,0.30
2023-03-18T07:31:55.136Z,0.30
2023-03-18T07:34:22.792Z,0.40
2023-03-18T07:36:49.835Z,0.40
2023-03-18T07:39:17.227Z,0.32
2023-03-18T07:41:44.962Z,0.40
2023-03-18T07:44:12.056Z,0.40
2023-03-18T07:46:42.363Z,0.43
2023-03-18T07:49:09.527Z,0.45
2023-03-18T07:51:36.877Z,0.30
2023-03-18T07:54:07.035Z,0.45
2023-03-18T07:56:34.705Z,0.35
2023-03-18T07:59:01.688Z,0.30
2023-03-18T08:01:28.895Z,0.40
2023-03-18T08:03:59.701Z,0.40
2023-03-18T08:06:27.664Z,0.40
2023-03-18T08:08:55.433Z,0.40
2023-03-18T08:11:23.078Z,0.30
2023-03-18T08:13:50.274Z,0.30
2023-03-18T08:16:18.657Z,0.40
2023-03-18T08:18:46.184Z,0.30
2023-03-18T08:21:13.583Z,0.40
2023-03-18T08:23:44.226Z,0.30
2023-03-18T08:26:12.244Z,0.40
2023-03-18T08:28:39.787Z,0.30
2023-03-18T08:31:06.814Z,0.40
2023-03-18T08:33:33.926Z,0.77
2023-03-18T08:36:02.092Z,0.40
2023-03-18T08:38:29.380Z,0.40
2023-03-18T08:40:57.043Z,0.43
2023-03-18T08:43:25.884Z,0.32
2023-03-18T08:45:57.408Z,0.40
2023-03-18T08:48:26.414Z,0.38
2023-03-18T08:50:54.857Z,0.30
2023-03-18T08:53:22.190Z,0.40
2023-03-18T08:55:49.750Z,0.43
2023-03-18T08:58:18.462Z,0.35
2023-03-18T09:00:46.119Z,0.50
2023-03-18T09:03:16.138Z,0.32
2023-03-18T09:05:43.903Z,0.30
2023-03-18T09:08:11.018Z,0.40
2023-03-18T09:10:41.589Z,0.40
2023-03-18T09:13:10.788Z,0.40
2023-03-18T09:15:38.591Z,0.40
2023-03-18T09:18:12.712Z,0.40
2023-03-18T09:20:42.860Z,0.35
2023-03-18T09:23:12.896Z,0.40
2023-03-18T09:25:42.731Z,0.30
2023-03-18T09:28:11.457Z,0.30
2023-03-18T09:30:39.899Z,0.43
2023-03-18T09:33:11.764Z,0.40
2023-03-18T09:35:40.476Z,0.40
2023-03-18T09:38:08.517Z,0.40
2023-03-18T09:40:46.242Z,0.68
2023-03-18T09:43:29.851Z,0.50
2023-03-18T09:46:35.405Z,0.63
2023-03-18T09:49:42.798Z,1.05
2023-03-18T09:52:42.523Z,0.90
2023-03-18T09:55:35.953Z,1.10
2023-03-18T09:58:15.333Z,1.30
2023-03-18T10:00:44.569Z,1.30
2023-03-18T10:03:48.998Z,1.30
2023-03-18T10:06:25.198Z,1.30
2023-03-18T10:09:25.315Z,1.42
2023-03-18T10:12:06.363Z,1.50
2023-03-18T10:14:44.334Z,2.00
2023-03-18T10:18:03.130Z,1.48
2023-03-18T10:21:07.368Z,1.85
2023-03-18T10:23:58.321Z,1.70
2023-03-18T10:27:10.804Z,1.90
2023-03-18T10:30:18.278Z,1.83
2023-03-18T10:33:13.205Z,2.00
2023-03-18T10:35:58.237Z,1.80
2023-03-18T10:38:42.806Z,2.55
2023-03-18T10:41:35.329Z,2.00
2023-03-18T10:44:27.716Z,1.73
2023-03-18T10:47:16.607Z,2.03
2023-03-18T10:49:59.793Z,1.80
2023-03-18T10:52:41.638Z,1.60
2023-03-18T10:55:31.604Z,1.75
2023-03-18T10:57:59.416Z,1.63
2023-03-18T11:00:28.599Z,1.85
2023-03-18T11:03:00.046Z,1.73
2023-03-18T11:05:38.320Z,1.90
2023-03-18T11:08:28.752Z,1.75
2023-03-18T11:10:56.246Z,2.03
2023-03-18T11:13:25.020Z,1.90
2023-03-18T11:15:56.816Z,1.75
2023-03-18T11:18:27.319Z,1.90
2023-03-18T11:21:01.018Z,2.08
2023-03-18T11:23:49.602Z,1.65
2023-03-18T11:26:29.692Z,1.95
2023-03-18T11:29:11.139Z,1.67
2023-03-18T11:32:00.858Z,1.85
2023-03-18T11:34:35.601Z,1.85
2023-03-18T11:37:13.257Z,1.67
2023-03-18T11:39:41.884Z,1.85
2023-03-18T11:42:22.589Z,1.50
2023-03-18T11:44:54.794Z,1.95
2023-03-18T11:47:28.059Z,1.80
2023-03-18T11:49:55.971Z,2.15
2023-03-18T11:52:43.736Z,1.73
2023-03-18T11:55:32.718Z,2.10
2023-03-18T11:59:03.068Z,1.65
2023-03-18T12:02:19.746Z,1.55
2023-03-18T12:05:34.871Z,1.88
2023-03-18T12:08:48.863Z,1.70
2023-03-18T12:11:33.514Z,1.80
2023-03-18T12:14:26.102Z,1.58
2023-03-18T12:17:23.835Z,1.80
2023-03-18T12:20:57.125Z,1.55
2023-03-18T12:23:50.102Z,1.70
2023-03-18T12:27:00.280Z,1.50
2023-03-18T12:30:00.685Z,1.40
2023-03-18T12:32:46.956Z,1.60
2023-03-18T12:35:19.510Z,1.73
2023-03-18T12:38:15.903Z,1.38
2023-03-18T12:41:06.302Z,1.33
2023-03-18T12:44:24.391Z,1.80
2023-03-18T12:47:42.850Z,1.30
2023-03-18T12:50:25.736Z,1.10
2023-03-18T12:53:04.608Z,1.30
2023-03-18T12:55:49.962Z,1.60
2023-03-18T12:58:32.106Z,1.00
2023-03-18T13:01:20.309Z,1.27
2023-03-18T13:04:01.943Z,1.45
2023-03-18T13:06:47.787Z,1.40
2023-03-18T13:09:41.465Z,1.17
2023-03-18T13:12:43.290Z,1.33
2023-03-18T13:15:40.585Z,1.63
2023-03-18T13:18:33.733Z,1.58
2023-03-18T13:21:03.276Z,1.27
2023-03-18T13:24:13.963Z,1.52
2023-03-18T13:27:42.471Z,1.10
2023-03-18T13:30:45.554Z,1.38
2023-03-18T13:33:51.942Z,1.35
2023-03-18T13:36:40.123Z,1.50
2023-03-18T13:39:19.226Z,1.20
2023-03-18T13:42:23.961Z,1.30
2023-03-18T13:45:28.117Z,1.17
2023-03-18T13:48:21.588Z,1.40
2023-03-18T13:50:53.132Z,1.25
2023-03-18T13:53:41.482Z,1.30
2023-03-18T13:56:42.864Z,1.88
2023-03-18T13:59:46.749Z,1.40
2023-03-18T14:02:43.211Z,1.20
2023-03-18T14:05:32.391Z,1.27
2023-03-18T14:08:05.695Z,1.33
2023-03-18T14:10:32.950Z,1.27
2023-03-18T14:13:27.662Z,1.42
2023-03-18T14:15:58.295Z,1.17
2023-03-18T14:18:29.132Z,1.35
2023-03-18T14:21:01.692Z,0.93
2023-03-18T14:23:42.328Z,1.52
2023-03-18T14:26:27.133Z,1.05
2023-03-18T14:29:14.865Z,1.10
2023-03-18T14:31:43.424Z,1.00
2023-03-18T14:34:19.790Z,1.08
2023-03-18T14:36:52.818Z,0.90
2023-03-18T14:39:43.083Z,0.88
2023-03-18T14:42:48.774Z,0.85
2023-03-18T14:45:25.995Z,1.15
2023-03-18T14:47:58.026Z,0.98
2023-03-18T14:50:43.711Z,1.00
2023-03-18T14:53:29.845Z,0.80
2023-03-18T14:55:59.017Z,0.73
2023-03-18T14:58:28.421Z,0.90
2023-03-18T15:01:06.876Z,1.00
2023-03-18T15:03:34.515Z,1.27
2023-03-18T15:06:08.550Z,1.77
2023-03-18T15:08:50.473Z,1.10
2023-03-18T15:11:22.940Z,1.00
2023-03-18T15:13:54.724Z,0.95
2023-03-18T15:16:25.444Z,0.90
2023-03-18T15:18:55.005Z,1.13
2023-03-18T15:21:35.838Z,1.10
2023-03-18T15:24:07.584Z,1.00
2023-03-18T15:26:41.027Z,0.93
2023-03-18T15:29:29.536Z,1.10
2023-03-18T15:32:17.740Z,1.05
2023-03-18T15:34:53.246Z,1.10
2023-03-18T15:37:40.930Z,0.88
2023-03-18T15:40:35.549Z,1.33
2023-03-18T15:43:12.294Z,1.15
2023-03-18T15:45:53.091Z,1.30
2023-03-18T15:48:37.445Z,1.20
2023-03-18T15:51:10.671Z,1.00
2023-03-18T15:53:44.916Z,1.27
2023-03-18T15:56:20.093Z,1.23
2023-03-18T15:59:09.340Z,0.90
2023-03-18T16:01:38.119Z,1.20
2023-03-18T16:04:10.804Z,1.20
2023-03-18T16:06:39.673Z,0.95
2023-03-18T16:09:16.210Z,1.23
2023-03-18T16:11:49.532Z,1.02
2023-03-18T16:14:21.618Z,1.50
2023-03-18T16:16:50.230Z,1.00
2023-03-18T16:19:28.817Z,1.20
2023-03-18T16:21:59.003Z,1.10
2023-03-18T16:24:27.401Z,1.42
2023-03-18T16:26:59.503Z,1.55
2023-03-18T16:29:38.542Z,1.20
2023-03-18T16:32:06.863Z,1.05
2023-03-18T16:34:34.936Z,1.27
2023-03-18T16:37:02.184Z,1.38
2023-03-18T16:39:35.851Z,1.13
2023-03-18T16:42:09.221Z,1.10
2023-03-18T16:44:38.531Z,1.00
2023-03-18T16:47:07.753Z,1.23
2023-03-18T16:49:37.818Z,1.10
2023-03-18T16:52:05.475Z,1.10
2023-03-18T16:54:34.289Z,0.90
2023-03-18T16:57:07.074Z,0.88
2023-03-18T16:59:38.494Z,1.10
2023-03-18T17:02:26.488Z,1.00
2023-03-18T17:04:53.633Z,0.90
2023-03-18T17:07:21.517Z,0.75
2023-03-18T17:09:52.179Z,1.00
2023-03-18T17:12:21.964Z,0.70
2023-03-18T17:14:56.948Z,0.82
2023-03-18T17:17:39.668Z,0.85
2023-03-18T17:20:34.826Z,1.08
2023-03-18T17:23:05.704Z,0.90
2023-03-18T17:25:33.299Z,0.90
2023-03-18T17:28:18.314Z,1.10
2023-03-18T17:30:45.413Z,0.82
2023-03-18T17:33:29.080Z,0.90
2023-03-18T17:35:56.893Z,0.80
2023-03-18T17:38:24.799Z,0.63
2023-03-18T17:41:02.021Z,0.85
2023-03-18T17:43:37.641Z,0.82
2023-03-18T17:46:07.690Z,1.00
2023-03-18T17:48:38.052Z,0.90
2023-03-18T17:51:14.350Z,0.60
2023-03-18T17:53:59.307Z,0.73
2023-03-18T17:56:28.081Z,0.95
2023-03-18T17:58:55.416Z,0.88
2023-03-18T18:01:29.294Z,0.98
2023-03-18T18:03:59.965Z,0.60
2023-03-18T18:06:30.285Z,0.88
2023-03-18T18:09:00.296Z,0.80
2023-03-18T18:11:32.876Z,0.68
2023-03-18T18:14:21.969Z,0.80
2023-03-18T18:16:50.740Z,0.65
2023-03-18T18:19:19.141Z,0.90
2023-03-18T18:21:49.192Z,0.77
2023-03-18T18:24:22.379Z,0.80
2023-03-18T18:26:49.858Z,0.65
2023-03-18T18:29:26.557Z,0.60
2023-03-18T18:31:54.849Z,0.70
2023-03-18T18:34:22.603Z,0.68
2023-03-18T18:36:50.797Z,0.82
2023-03-18T18:39:20.114Z,0.80
2023-03-18T18:41:47.389Z,0.65
2023-03-18T18:44:19.184Z,0.50
2023-03-18T18:46:47.026Z,0.70
2023-03-18T18:49:27.802Z,0.60
2023-03-18T18:51:56.859Z,0.50
2023-03-18T18:54:25.085Z,0.60
2023-03-18T18:56:52.861Z,0.60
2023-03-18T18:59:26.736Z,0.63
2023-03-18T19:01:55.915Z,0.90
2023-03-18T19:04:24.199Z,0.50
2023-03-18T19:06:54.681Z,0.60
2023-03-18T19:09:25.357Z,0.70
2023-03-18T19:11:56.793Z,0.60
2023-03-18T19:14:29.498Z,0.73
2023-03-18T19:16:59.128Z,0.80
2023-03-18T19:19:31.308Z,0.80
2023-03-18T19:21:59.299Z,0.80
2023-03-18T19:24:31.723Z,0.82
2023-03-18T19:27:12.038Z,1.02
2023-03-18T19:29:39.156Z,0.80
2023-03-18T19:32:08.427Z,0.90
2023-03-18T19:34:35.464Z,0.80
2023-03-18T19:37:04.297Z,0.80
2023-03-18T19:39:31.930Z,0.88
2023-03-18T19:41:59.163Z,1.00
2023-03-18T19:44:27.440Z,0.77
2023-03-18T19:46:58.952Z,0.80
2023-03-18T19:49:36.610Z,0.80
2023-03-18T19:52:27.471Z,0.90
2023-03-18T19:54:55.999Z,0.90
2023-03-18T19:57:31.724Z,0.80
2023-03-18T20:00:05.797Z,0.90
2023-03-18T20:02:36.544Z,0.93
2023-03-18T20:05:16.605Z,0.80
2023-03-18T20:07:46.613Z,0.80
2023-03-18T20:10:14.763Z,1.05
2023-03-18T20:12:47.689Z,0.73
2023-03-18T20:15:25.250Z,0.80
2023-03-18T20:17:53.734Z,0.90
2023-03-18T20:20:24.498Z,0.63
2023-03-18T20:23:03.934Z,0.95
2023-03-18T20:25:38.501Z,0.98
2023-03-18T20:28:08.134Z,0.88
2023-03-18T20:30:39.473Z,0.90
2023-03-18T20:33:07.705Z,0.82
2023-03-18T20:35:42.893Z,1.13
2023-03-18T20:38:37.697Z,0.70
2023-03-18T20:41:06.761Z,0.80
2023-03-18T20:43:35.035Z,0.73
2023-03-18T20:46:02.620Z,0.73
2023-03-18T20:48:30.654Z,0.70
2023-03-18T20:50:58.774Z,0.80
2023-03-18T20:53:29.085Z,0.90
2023-03-18T20:55:56.853Z,0.70
2023-03-18T20:58:27.581Z,0.80
2023-03-18T21:00:55.789Z,0.60
2023-03-18T21:03:31.045Z,0.98
2023-03-18T21:06:01.622Z,0.73
2023-03-18T21:08:31.330Z,0.70
2023-03-18T21:11:02.040Z,0.70
2023-03-18T21:13:40.497Z,0.73
2023-03-18T21:16:15.124Z,0.75
2023-03-18T21:18:46.192Z,0.70
2023-03-18T21:21:24.140Z,0.60
2023-03-18T21:23:53.957Z,0.80
2023-03-18T21:26:23.100Z,0.60
2023-03-18T21:28:52.533Z,0.73
2023-03-18T21:31:33.379Z,0.82
2023-03-18T21:34:01.770Z,0.60
2023-03-18T21:36:28.743Z,0.60
2023-03-18T21:38:56.753Z,0.77
2023-03-18T21:41:30.295Z,0.70
2023-03-18T21:44:01.246Z,0.63
2023-03-18T21:46:30.715Z,0.60
2023-03-18T21:48:58.113Z,0.82
2023-03-18T21:51:39.580Z,0.60
2023-03-18T21:54:18.698Z,0.70
2023-03-18T21:56:46.641Z,0.60
2023-03-18T21:59:13.861Z,0.70
2023-03-18T22:01:41.088Z,0.70
2023-03-18T22:04:08.399Z,0.60
2023-03-18T22:06:36.518Z,0.73
2023-03-18T22:09:04.390Z,0.70
2023-03-18T22:11:32.405Z,0.68
2023-03-18T22:14:00.288Z,0.70
2023-03-18T22:16:27.317Z,0.60
2023-03-18T22:18:54.740Z,0.73
2023-03-18T22:21:27.873Z,0.50
2023-03-18T22:23:58.316Z,0.70
2023-03-18T22:26:27.193Z,0.70
2023-03-18T22:28:54.195Z,0.60
2023-03-18T22:31:26.234Z,0.63
2023-03-18T22:33:55.080Z,0.70
2023-03-18T22:36:24.029Z,0.70
2023-03-18T22:38:51.172Z,0.60
2023-03-18T22:41:24.247Z,0.73
2023-03-18T22:43:52.198Z,0.63
2023-03-18T22:46:22.904Z,0.55
2023-03-18T22:48:49.822Z,0.60
2023-03-18T22:51:26.451Z,0.60
2023-03-18T22:53:54.303Z,0.60
2023-03-18T22:56:23.476Z,0.70
2023-03-18T22:58:51.640Z,0.60
2023-03-18T23:01:29.661Z,0.65
2023-03-18T23:03:56.681Z,0.57
2023-03-18T23:06:24.010Z,0.60
2023-03-18T23:08:51.644Z,0.50
2023-03-18T23:11:19.333Z,0.57
2023-03-18T23:13:50.659Z,0.70
2023-03-18T23:16:22.438Z,0.70
2023-03-18T23:18:50.792Z,0.55
2023-03-18T23:21:21.846Z,0.60
2023-03-18T23:23:50.002Z,0.63
2023-03-18T23:26:17.880Z,0.55
2023-03-18T23:28:46.097Z,0.52
2023-03-18T23:31:16.781Z,0.65
2023-03-18T23:33:45.341Z,0.55
2023-03-18T23:36:12.827Z,0.50
2023-03-18T23:38:41.053Z,0.50
2023-03-18T23:41:08.469Z,0.40
2023-03-18T23:43:37.027Z,0.60
2023-03-18T23:46:04.802Z,0.50
2023-03-18T23:48:35.089Z,0.55
2023-03-18T23:51:02.361Z,0.50
2023-03-18T23:53:30.437Z,0.50
2023-03-18T23:55:57.617Z,0.60
2023-03-18T23:58:25.357Z,0.60
